sensor_id;sensor_type;location;lat;lon;timestamp;temperature;humidity
22130;DHT22;11231;50.746;4.272;2024-02-21T00:00:37;11.20;99.90
22130;DHT22;11231;50.746;4.272;2024-02-21T00:03:07;11.20;99.90
22130;DHT22;11231;50.746;4.272;2024-02-21T00:05:33;11.30;99.90
22130;DHT22;11231;50.746;4.272;2024-02-21T00:07:59;11.30;99.90
22130;DHT22;11231;50.746;4.272;2024-02-21T00:10:25;11.30;99.90
22130;DHT22;11231;50.746;4.272;2024-02-21T00:12:51;11.20;99.90
22130;DHT22;11231;50.746;4.272;2024-02-21T00:15:17;11.20;99.90
22130;DHT22;11231;50.746;4.272;2024-02-21T00:17:44;11.30;99.90
22130;DHT22;11231;50.746;4.272;2024-02-21T00:20:10;11.30;99.90
22130;DHT22;11231;50.746;4.272;2024-02-21T00:22:36;11.40;99.90
22130;DHT22;11231;50.746;4.272;2024-02-21T00:25:02;11.40;99.90
22130;DHT22;11231;50.746;4.272;2024-02-21T00:27:28;11.30;99.90
22130;DHT22;11231;50.746;4.272;2024-02-21T00:29:54;11.30;99.90
22130;DHT22;11231;50.746;4.272;2024-02-21T00:32:19;11.30;99.90
22130;DHT22;11231;50.746;4.272;2024-02-21T00:34:45;11.20;99.90
22130;DHT22;11231;50.746;4.272;2024-02-21T00:37:11;11.10;99.90
22130;DHT22;11231;50.746;4.272;2024-02-21T00:39:36;11.00;99.90
22130;DHT22;11231;50.746;4.272;2024-02-21T00:42:02;10.90;99.90
22130;DHT22;11231;50.746;4.272;2024-02-21T00:44:28;10.90;99.90
22130;DHT22;11231;50.746;4.272;2024-02-21T00:46:54;11.00;99.90
22130;DHT22;11231;50.746;4.272;2024-02-21T00:49:20;11.10;99.90
22130;DHT22;11231;50.746;4.272;2024-02-21T00:51:47;11.20;99.90
22130;DHT22;11231;50.746;4.272;2024-02-21T00:54:13;11.00;99.90
22130;DHT22;11231;50.746;4.272;2024-02-21T00:56:39;11.00;99.90
22130;DHT22;11231;50.746;4.272;2024-02-21T00:59:04;10.90;99.90
22130;DHT22;11231;50.746;4.272;2024-02-21T01:01:30;10.80;99.90
22130;DHT22;11231;50.746;4.272;2024-02-21T01:03:56;10.90;99.90
22130;DHT22;11231;50.746;4.272;2024-02-21T01:06:22;10.90;99.90
22130;DHT22;11231;50.746;4.272;2024-02-21T01:08:47;10.80;99.90
22130;DHT22;11231;50.746;4.272;2024-02-21T01:11:14;10.80;99.90
22130;DHT22;11231;50.746;4.272;2024-02-21T01:13:40;10.80;99.90
22130;DHT22;11231;50.746;4.272;2024-02-21T01:16:06;10.80;99.90
22130;DHT22;11231;50.746;4.272;2024-02-21T01:18:36;10.90;99.90
22130;DHT22;11231;50.746;4.272;2024-02-21T01:21:03;10.80;99.90
22130;DHT22;11231;50.746;4.272;2024-02-21T01:23:33;10.70;99.90
22130;DHT22;11231;50.746;4.272;2024-02-21T01:25:58;10.60;99.90
22130;DHT22;11231;50.746;4.272;2024-02-21T01:28:24;10.70;99.90
22130;DHT22;11231;50.746;4.272;2024-02-21T01:30:50;10.70;99.90
22130;DHT22;11231;50.746;4.272;2024-02-21T01:33:16;10.80;99.90
22130;DHT22;11231;50.746;4.272;2024-02-21T01:35:41;10.80;99.90
22130;DHT22;11231;50.746;4.272;2024-02-21T01:38:07;10.70;99.90
22130;DHT22;11231;50.746;4.272;2024-02-21T01:40:33;10.70;99.90
22130;DHT22;11231;50.746;4.272;2024-02-21T01:42:59;10.70;99.90
22130;DHT22;11231;50.746;4.272;2024-02-21T01:45:24;10.60;99.90
22130;DHT22;11231;50.746;4.272;2024-02-21T01:47:50;10.50;99.90
22130;DHT22;11231;50.746;4.272;2024-02-21T01:50:17;10.50;99.90
22130;DHT22;11231;50.746;4.272;2024-02-21T01:52:46;10.60;99.90
22130;DHT22;11231;50.746;4.272;2024-02-21T01:55:13;10.60;99.90
22130;DHT22;11231;50.746;4.272;2024-02-21T01:57:43;10.60;99.90
22130;DHT22;11231;50.746;4.272;2024-02-21T02:00:13;10.60;99.90
22130;DHT22;11231;50.746;4.272;2024-02-21T02:02:40;10.50;99.90
22130;DHT22;11231;50.746;4.272;2024-02-21T02:05:08;10.60;99.90
22130;DHT22;11231;50.746;4.272;2024-02-21T02:07:33;10.70;99.90
22130;DHT22;11231;50.746;4.272;2024-02-21T02:09:59;10.60;99.90
22130;DHT22;11231;50.746;4.272;2024-02-21T02:12:25;10.70;99.90
22130;DHT22;11231;50.746;4.272;2024-02-21T02:15:01;10.70;99.90
22130;DHT22;11231;50.746;4.272;2024-02-21T02:17:30;10.80;99.90
22130;DHT22;11231;50.746;4.272;2024-02-21T02:19:56;10.80;99.90
22130;DHT22;11231;50.746;4.272;2024-02-21T02:22:24;10.80;99.90
22130;DHT22;11231;50.746;4.272;2024-02-21T02:24:53;10.70;99.90
22130;DHT22;11231;50.746;4.272;2024-02-21T02:27:19;10.80;99.90
22130;DHT22;11231;50.746;4.272;2024-02-21T02:29:45;10.80;99.90
22130;DHT22;11231;50.746;4.272;2024-02-21T02:32:12;10.80;99.90
22130;DHT22;11231;50.746;4.272;2024-02-21T02:34:38;11.00;99.90
22130;DHT22;11231;50.746;4.272;2024-02-21T02:37:04;11.00;99.90
22130;DHT22;11231;50.746;4.272;2024-02-21T02:39:29;11.00;99.90
22130;DHT22;11231;50.746;4.272;2024-02-21T02:41:55;11.00;99.90
22130;DHT22;11231;50.746;4.272;2024-02-21T02:44:21;10.80;99.90
22130;DHT22;11231;50.746;4.272;2024-02-21T02:46:47;10.90;99.90
22130;DHT22;11231;50.746;4.272;2024-02-21T02:49:14;10.70;99.90
22130;DHT22;11231;50.746;4.272;2024-02-21T02:51:43;10.70;99.90
22130;DHT22;11231;50.746;4.272;2024-02-21T02:54:09;10.80;99.90
22130;DHT22;11231;50.746;4.272;2024-02-21T02:56:35;10.80;99.90
22130;DHT22;11231;50.746;4.272;2024-02-21T02:59:01;10.80;99.90
22130;DHT22;11231;50.746;4.272;2024-02-21T03:01:26;10.70;99.90
22130;DHT22;11231;50.746;4.272;2024-02-21T03:03:53;10.60;99.90
22130;DHT22;11231;50.746;4.272;2024-02-21T03:06:19;10.60;99.90
22130;DHT22;11231;50.746;4.272;2024-02-21T03:08:45;10.70;99.90
22130;DHT22;11231;50.746;4.272;2024-02-21T03:11:11;10.60;99.90
22130;DHT22;11231;50.746;4.272;2024-02-21T03:13:37;10.70;99.90
22130;DHT22;11231;50.746;4.272;2024-02-21T03:16:03;10.70;99.90
22130;DHT22;11231;50.746;4.272;2024-02-21T03:18:28;10.70;99.90
22130;DHT22;11231;50.746;4.272;2024-02-21T03:20:54;10.70;99.90
22130;DHT22;11231;50.746;4.272;2024-02-21T03:23:20;10.60;99.90
22130;DHT22;11231;50.746;4.272;2024-02-21T03:25:46;10.60;99.90
22130;DHT22;11231;50.746;4.272;2024-02-21T03:28:11;10.60;99.90
22130;DHT22;11231;50.746;4.272;2024-02-21T03:30:37;10.60;99.90
22130;DHT22;11231;50.746;4.272;2024-02-21T03:33:04;10.70;99.90
22130;DHT22;11231;50.746;4.272;2024-02-21T03:35:29;10.70;99.90
22130;DHT22;11231;50.746;4.272;2024-02-21T03:37:55;10.70;99.90
22130;DHT22;11231;50.746;4.272;2024-02-21T03:40:21;10.80;99.90
22130;DHT22;11231;50.746;4.272;2024-02-21T03:42:46;10.70;99.90
22130;DHT22;11231;50.746;4.272;2024-02-21T03:45:12;10.80;99.90
22130;DHT22;11231;50.746;4.272;2024-02-21T03:47:38;10.80;99.90
22130;DHT22;11231;50.746;4.272;2024-02-21T03:50:05;10.80;99.90
22130;DHT22;11231;50.746;4.272;2024-02-21T03:52:31;11.00;99.90
22130;DHT22;11231;50.746;4.272;2024-02-21T03:54:58;11.00;99.90
22130;DHT22;11231;50.746;4.272;2024-02-21T03:57:24;10.80;99.90
22130;DHT22;11231;50.746;4.272;2024-02-21T03:59:50;10.80;99.90
22130;DHT22;11231;50.746;4.272;2024-02-21T04:02:17;10.80;99.90
22130;DHT22;11231;50.746;4.272;2024-02-21T04:04:43;10.80;99.90
22130;DHT22;11231;50.746;4.272;2024-02-21T04:07:14;10.90;99.90
22130;DHT22;11231;50.746;4.272;2024-02-21T04:09:39;10.90;99.90
22130;DHT22;11231;50.746;4.272;2024-02-21T04:12:05;10.90;99.90
22130;DHT22;11231;50.746;4.272;2024-02-21T04:14:31;10.80;99.90
22130;DHT22;11231;50.746;4.272;2024-02-21T04:16:57;10.70;99.90
22130;DHT22;11231;50.746;4.272;2024-02-21T04:19:23;10.70;99.90
22130;DHT22;11231;50.746;4.272;2024-02-21T04:21:48;10.80;99.90
22130;DHT22;11231;50.746;4.272;2024-02-21T04:24:14;10.80;99.90
22130;DHT22;11231;50.746;4.272;2024-02-21T04:26:40;10.70;99.90
22130;DHT22;11231;50.746;4.272;2024-02-21T04:29:06;10.70;99.90
22130;DHT22;11231;50.746;4.272;2024-02-21T04:31:35;10.50;99.90
22130;DHT22;11231;50.746;4.272;2024-02-21T04:34:00;10.50;99.90
22130;DHT22;11231;50.746;4.272;2024-02-21T04:36:26;10.50;99.90
22130;DHT22;11231;50.746;4.272;2024-02-21T04:38:52;10.60;99.90
22130;DHT22;11231;50.746;4.272;2024-02-21T04:41:18;10.50;99.90
22130;DHT22;11231;50.746;4.272;2024-02-21T04:43:45;10.60;99.90
22130;DHT22;11231;50.746;4.272;2024-02-21T04:46:11;10.60;99.90
22130;DHT22;11231;50.746;4.272;2024-02-21T04:48:36;10.60;99.90
22130;DHT22;11231;50.746;4.272;2024-02-21T04:51:02;10.50;99.90
22130;DHT22;11231;50.746;4.272;2024-02-21T04:53:28;10.50;99.90
22130;DHT22;11231;50.746;4.272;2024-02-21T04:55:54;10.60;99.90
22130;DHT22;11231;50.746;4.272;2024-02-21T04:58:19;10.60;99.90
22130;DHT22;11231;50.746;4.272;2024-02-21T05:00:46;10.50;99.90
22130;DHT22;11231;50.746;4.272;2024-02-21T05:03:12;10.40;99.90
22130;DHT22;11231;50.746;4.272;2024-02-21T05:05:38;10.50;99.90
22130;DHT22;11231;50.746;4.272;2024-02-21T05:08:04;10.50;99.90
22130;DHT22;11231;50.746;4.272;2024-02-21T05:10:29;10.60;99.90
22130;DHT22;11231;50.746;4.272;2024-02-21T05:12:55;10.60;99.90
22130;DHT22;11231;50.746;4.272;2024-02-21T05:15:21;10.40;99.90
22130;DHT22;11231;50.746;4.272;2024-02-21T05:17:48;10.40;99.90
22130;DHT22;11231;50.746;4.272;2024-02-21T05:20:13;10.40;99.90
22130;DHT22;11231;50.746;4.272;2024-02-21T05:22:39;10.30;99.90
22130;DHT22;11231;50.746;4.272;2024-02-21T05:25:05;10.30;99.90
22130;DHT22;11231;50.746;4.272;2024-02-21T05:27:31;10.20;99.90
22130;DHT22;11231;50.746;4.272;2024-02-21T05:29:57;10.20;99.90
22130;DHT22;11231;50.746;4.272;2024-02-21T05:32:23;10.10;99.90
22130;DHT22;11231;50.746;4.272;2024-02-21T05:34:50;10.20;99.90
22130;DHT22;11231;50.746;4.272;2024-02-21T05:37:16;10.30;99.90
22130;DHT22;11231;50.746;4.272;2024-02-21T05:39:42;10.30;99.90
22130;DHT22;11231;50.746;4.272;2024-02-21T05:42:08;10.40;99.90
22130;DHT22;11231;50.746;4.272;2024-02-21T05:44:33;10.40;99.90
22130;DHT22;11231;50.746;4.272;2024-02-21T05:46:59;10.40;99.90
22130;DHT22;11231;50.746;4.272;2024-02-21T05:49:25;10.40;99.90
22130;DHT22;11231;50.746;4.272;2024-02-21T05:51:50;10.40;99.90
22130;DHT22;11231;50.746;4.272;2024-02-21T05:54:16;10.40;99.90
22130;DHT22;11231;50.746;4.272;2024-02-21T05:56:47;10.40;99.90
22130;DHT22;11231;50.746;4.272;2024-02-21T05:59:13;10.30;99.90
22130;DHT22;11231;50.746;4.272;2024-02-21T06:01:39;10.40;99.90
22130;DHT22;11231;50.746;4.272;2024-02-21T06:04:05;10.40;99.90
22130;DHT22;11231;50.746;4.272;2024-02-21T06:06:31;10.50;99.90
22130;DHT22;11231;50.746;4.272;2024-02-21T06:08:56;10.50;99.90
22130;DHT22;11231;50.746;4.272;2024-02-21T06:11:24;10.50;99.90
22130;DHT22;11231;50.746;4.272;2024-02-21T06:13:50;10.50;99.90
22130;DHT22;11231;50.746;4.272;2024-02-21T06:16:15;10.40;99.90
22130;DHT22;11231;50.746;4.272;2024-02-21T06:18:43;10.40;99.90
22130;DHT22;11231;50.746;4.272;2024-02-21T06:21:09;10.40;99.90
22130;DHT22;11231;50.746;4.272;2024-02-21T06:23:37;10.40;99.90
22130;DHT22;11231;50.746;4.272;2024-02-21T06:26:03;10.40;99.90
22130;DHT22;11231;50.746;4.272;2024-02-21T06:28:29;10.40;99.90
22130;DHT22;11231;50.746;4.272;2024-02-21T06:30:54;10.50;99.90
22130;DHT22;11231;50.746;4.272;2024-02-21T06:33:20;10.50;99.90
22130;DHT22;11231;50.746;4.272;2024-02-21T06:35:50;10.50;99.90
22130;DHT22;11231;50.746;4.272;2024-02-21T06:38:18;10.60;99.90
22130;DHT22;11231;50.746;4.272;2024-02-21T06:40:44;10.70;99.90
22130;DHT22;11231;50.746;4.272;2024-02-21T06:43:16;10.60;99.90
22130;DHT22;11231;50.746;4.272;2024-02-21T06:45:42;10.60;99.90
22130;DHT22;11231;50.746;4.272;2024-02-21T06:48:07;10.50;99.90
22130;DHT22;11231;50.746;4.272;2024-02-21T06:50:33;10.60;99.90
22130;DHT22;11231;50.746;4.272;2024-02-21T06:52:59;10.60;99.90
22130;DHT22;11231;50.746;4.272;2024-02-21T06:55:25;10.60;99.90
22130;DHT22;11231;50.746;4.272;2024-02-21T06:57:50;10.60;99.90
22130;DHT22;11231;50.746;4.272;2024-02-21T07:00:16;10.60;99.90
22130;DHT22;11231;50.746;4.272;2024-02-21T07:02:42;10.30;99.90
22130;DHT22;11231;50.746;4.272;2024-02-21T07:05:08;10.30;99.90
22130;DHT22;11231;50.746;4.272;2024-02-21T07:07:34;10.30;99.90
22130;DHT22;11231;50.746;4.272;2024-02-21T07:10:00;10.30;99.90
22130;DHT22;11231;50.746;4.272;2024-02-21T07:12:26;10.20;99.90
22130;DHT22;11231;50.746;4.272;2024-02-21T07:14:52;10.30;99.90
22130;DHT22;11231;50.746;4.272;2024-02-21T07:17:17;10.40;99.90
22130;DHT22;11231;50.746;4.272;2024-02-21T07:19:43;10.30;99.90
22130;DHT22;11231;50.746;4.272;2024-02-21T07:22:09;10.30;99.90
22130;DHT22;11231;50.746;4.272;2024-02-21T07:24:34;10.40;99.90
22130;DHT22;11231;50.746;4.272;2024-02-21T07:27:00;10.40;99.90
22130;DHT22;11231;50.746;4.272;2024-02-21T07:29:30;10.30;99.90
22130;DHT22;11231;50.746;4.272;2024-02-21T07:31:56;10.30;99.90
22130;DHT22;11231;50.746;4.272;2024-02-21T07:34:22;10.30;99.90
22130;DHT22;11231;50.746;4.272;2024-02-21T07:36:47;10.40;99.90
22130;DHT22;11231;50.746;4.272;2024-02-21T07:39:13;10.50;99.90
22130;DHT22;11231;50.746;4.272;2024-02-21T07:41:39;10.30;99.90
22130;DHT22;11231;50.746;4.272;2024-02-21T07:44:06;10.40;99.90
22130;DHT22;11231;50.746;4.272;2024-02-21T07:46:32;10.40;99.90
22130;DHT22;11231;50.746;4.272;2024-02-21T07:48:58;10.30;99.90
22130;DHT22;11231;50.746;4.272;2024-02-21T07:51:27;10.40;99.90
22130;DHT22;11231;50.746;4.272;2024-02-21T07:53:53;10.40;99.90
22130;DHT22;11231;50.746;4.272;2024-02-21T07:56:19;10.30;99.90
22130;DHT22;11231;50.746;4.272;2024-02-21T07:58:45;10.20;99.90
22130;DHT22;11231;50.746;4.272;2024-02-21T08:01:11;10.30;99.90
22130;DHT22;11231;50.746;4.272;2024-02-21T08:03:36;10.20;99.90
22130;DHT22;11231;50.746;4.272;2024-02-21T08:06:03;10.30;99.90
22130;DHT22;11231;50.746;4.272;2024-02-21T08:08:28;10.30;99.90
22130;DHT22;11231;50.746;4.272;2024-02-21T08:10:54;10.30;99.90
22130;DHT22;11231;50.746;4.272;2024-02-21T08:13:20;10.30;99.90
22130;DHT22;11231;50.746;4.272;2024-02-21T08:15:46;10.30;99.90
22130;DHT22;11231;50.746;4.272;2024-02-21T08:18:12;10.40;99.90
22130;DHT22;11231;50.746;4.272;2024-02-21T08:20:37;10.40;99.90
22130;DHT22;11231;50.746;4.272;2024-02-21T08:23:03;10.40;99.90
22130;DHT22;11231;50.746;4.272;2024-02-21T08:25:29;10.30;99.90
22130;DHT22;11231;50.746;4.272;2024-02-21T08:27:59;10.30;99.90
22130;DHT22;11231;50.746;4.272;2024-02-21T08:30:25;10.40;99.90
22130;DHT22;11231;50.746;4.272;2024-02-21T08:32:53;10.40;99.90
22130;DHT22;11231;50.746;4.272;2024-02-21T08:35:19;10.40;99.90
22130;DHT22;11231;50.746;4.272;2024-02-21T08:37:48;10.40;99.90
22130;DHT22;11231;50.746;4.272;2024-02-21T08:40:14;10.30;99.90
22130;DHT22;11231;50.746;4.272;2024-02-21T08:42:43;10.30;99.90
22130;DHT22;11231;50.746;4.272;2024-02-21T08:45:09;10.30;99.90
22130;DHT22;11231;50.746;4.272;2024-02-21T08:47:35;10.40;99.90
22130;DHT22;11231;50.746;4.272;2024-02-21T08:50:02;10.40;99.90
22130;DHT22;11231;50.746;4.272;2024-02-21T08:52:27;10.40;99.90
22130;DHT22;11231;50.746;4.272;2024-02-21T08:54:53;10.30;99.90
22130;DHT22;11231;50.746;4.272;2024-02-21T08:57:20;10.50;99.90
22130;DHT22;11231;50.746;4.272;2024-02-21T08:59:46;10.50;99.90
22130;DHT22;11231;50.746;4.272;2024-02-21T09:02:13;10.50;99.90
22130;DHT22;11231;50.746;4.272;2024-02-21T09:04:38;10.60;99.90
22130;DHT22;11231;50.746;4.272;2024-02-21T09:07:04;10.60;99.90
22130;DHT22;11231;50.746;4.272;2024-02-21T09:09:30;10.70;99.90
22130;DHT22;11231;50.746;4.272;2024-02-21T09:11:56;10.70;99.90
22130;DHT22;11231;50.746;4.272;2024-02-21T09:14:23;10.90;99.90
22130;DHT22;11231;50.746;4.272;2024-02-21T09:16:48;10.90;99.90
22130;DHT22;11231;50.746;4.272;2024-02-21T09:19:14;10.90;99.90
22130;DHT22;11231;50.746;4.272;2024-02-21T09:21:40;10.90;99.90
22130;DHT22;11231;50.746;4.272;2024-02-21T09:24:06;10.90;99.90
22130;DHT22;11231;50.746;4.272;2024-02-21T09:26:31;11.00;99.90
22130;DHT22;11231;50.746;4.272;2024-02-21T09:28:57;11.00;99.90
22130;DHT22;11231;50.746;4.272;2024-02-21T09:31:23;11.00;99.90
22130;DHT22;11231;50.746;4.272;2024-02-21T09:33:49;11.00;99.90
22130;DHT22;11231;50.746;4.272;2024-02-21T09:36:14;11.20;99.90
22130;DHT22;11231;50.746;4.272;2024-02-21T09:38:40;11.20;99.90
22130;DHT22;11231;50.746;4.272;2024-02-21T09:41:17;11.10;99.90
22130;DHT22;11231;50.746;4.272;2024-02-21T09:43:44;11.20;99.90
22130;DHT22;11231;50.746;4.272;2024-02-21T09:46:17;11.30;99.90
22130;DHT22;11231;50.746;4.272;2024-02-21T09:49:04;11.30;99.90
22130;DHT22;11231;50.746;4.272;2024-02-21T09:51:34;11.30;99.90
22130;DHT22;11231;50.746;4.272;2024-02-21T09:54:00;11.30;99.90
22130;DHT22;11231;50.746;4.272;2024-02-21T09:56:28;11.30;99.90
22130;DHT22;11231;50.746;4.272;2024-02-21T09:58:54;11.30;99.90
22130;DHT22;11231;50.746;4.272;2024-02-21T10:01:20;11.30;99.90
22130;DHT22;11231;50.746;4.272;2024-02-21T10:03:46;11.30;99.90
22130;DHT22;11231;50.746;4.272;2024-02-21T10:06:11;11.40;99.90
22130;DHT22;11231;50.746;4.272;2024-02-21T10:08:37;11.40;99.90
22130;DHT22;11231;50.746;4.272;2024-02-21T10:11:03;11.50;99.90
22130;DHT22;11231;50.746;4.272;2024-02-21T10:13:29;11.60;99.90
22130;DHT22;11231;50.746;4.272;2024-02-21T10:16:06;11.70;99.90
22130;DHT22;11231;50.746;4.272;2024-02-21T10:18:33;11.70;99.90
22130;DHT22;11231;50.746;4.272;2024-02-21T10:21:05;11.60;99.90
22130;DHT22;11231;50.746;4.272;2024-02-21T10:23:45;11.70;99.90
22130;DHT22;11231;50.746;4.272;2024-02-21T10:26:11;11.60;99.90
22130;DHT22;11231;50.746;4.272;2024-02-21T10:28:38;11.70;99.90
22130;DHT22;11231;50.746;4.272;2024-02-21T10:31:08;11.70;99.90
22130;DHT22;11231;50.746;4.272;2024-02-21T10:33:34;11.90;99.90
22130;DHT22;11231;50.746;4.272;2024-02-21T10:36:10;11.90;99.90
22130;DHT22;11231;50.746;4.272;2024-02-21T10:38:37;11.90;99.90
22130;DHT22;11231;50.746;4.272;2024-02-21T10:41:05;11.90;99.90
22130;DHT22;11231;50.746;4.272;2024-02-21T10:43:33;11.90;99.90
22130;DHT22;11231;50.746;4.272;2024-02-21T10:46:05;11.80;99.90
22130;DHT22;11231;50.746;4.272;2024-02-21T10:48:42;11.80;99.90
22130;DHT22;11231;50.746;4.272;2024-02-21T10:51:15;11.70;99.90
22130;DHT22;11231;50.746;4.272;2024-02-21T10:57:00;12.00;99.90
22130;DHT22;11231;50.746;4.272;2024-02-21T10:59:27;12.10;99.90
22130;DHT22;11231;50.746;4.272;2024-02-21T11:01:55;12.10;99.90
22130;DHT22;11231;50.746;4.272;2024-02-21T11:04:21;11.80;99.90
22130;DHT22;11231;50.746;4.272;2024-02-21T11:06:47;11.60;99.90
22130;DHT22;11231;50.746;4.272;2024-02-21T11:09:14;11.50;99.90
22130;DHT22;11231;50.746;4.272;2024-02-21T11:11:41;11.80;99.90
22130;DHT22;11231;50.746;4.272;2024-02-21T11:16:37;11.80;99.90
22130;DHT22;11231;50.746;4.272;2024-02-21T11:19:06;11.70;99.90
22130;DHT22;11231;50.746;4.272;2024-02-21T11:21:36;11.70;99.90
22130;DHT22;11231;50.746;4.272;2024-02-21T11:24:05;11.80;99.90
22130;DHT22;11231;50.746;4.272;2024-02-21T11:26:31;11.80;99.90
22130;DHT22;11231;50.746;4.272;2024-02-21T11:29:01;11.90;99.90
22130;DHT22;11231;50.746;4.272;2024-02-21T11:31:39;11.80;99.90
22130;DHT22;11231;50.746;4.272;2024-02-21T11:34:09;11.90;99.90
22130;DHT22;11231;50.746;4.272;2024-02-21T11:36:35;11.90;99.90
22130;DHT22;11231;50.746;4.272;2024-02-21T11:39:04;11.90;99.90
22130;DHT22;11231;50.746;4.272;2024-02-21T11:41:30;11.80;99.90
22130;DHT22;11231;50.746;4.272;2024-02-21T11:43:56;11.70;99.90
22130;DHT22;11231;50.746;4.272;2024-02-21T11:46:21;11.70;99.90
22130;DHT22;11231;50.746;4.272;2024-02-21T11:48:49;11.80;99.90
22130;DHT22;11231;50.746;4.272;2024-02-21T11:51:22;11.90;99.90
22130;DHT22;11231;50.746;4.272;2024-02-21T11:53:54;11.70;99.90
22130;DHT22;11231;50.746;4.272;2024-02-21T11:56:20;11.80;99.90
22130;DHT22;11231;50.746;4.272;2024-02-21T11:58:46;11.70;99.90
22130;DHT22;11231;50.746;4.272;2024-02-21T12:01:15;11.80;99.90
22130;DHT22;11231;50.746;4.272;2024-02-21T12:03:42;11.90;99.90
22130;DHT22;11231;50.746;4.272;2024-02-21T12:06:15;12.00;99.90
22130;DHT22;11231;50.746;4.272;2024-02-21T12:08:45;12.10;99.90
22130;DHT22;11231;50.746;4.272;2024-02-21T12:11:23;12.10;99.90
22130;DHT22;11231;50.746;4.272;2024-02-21T12:14:01;12.00;99.90
22130;DHT22;11231;50.746;4.272;2024-02-21T12:16:29;12.00;99.90
22130;DHT22;11231;50.746;4.272;2024-02-21T12:19:01;12.00;99.90
22130;DHT22;11231;50.746;4.272;2024-02-21T12:21:30;11.90;99.90
22130;DHT22;11231;50.746;4.272;2024-02-21T12:23:58;11.90;99.90
22130;DHT22;11231;50.746;4.272;2024-02-21T12:26:24;11.90;99.90
22130;DHT22;11231;50.746;4.272;2024-02-21T12:28:50;12.00;99.90
22130;DHT22;11231;50.746;4.272;2024-02-21T12:31:16;12.20;99.90
22130;DHT22;11231;50.746;4.272;2024-02-21T12:33:42;12.20;99.90
22130;DHT22;11231;50.746;4.272;2024-02-21T12:36:08;12.30;99.90
22130;DHT22;11231;50.746;4.272;2024-02-21T12:38:35;12.10;99.90
22130;DHT22;11231;50.746;4.272;2024-02-21T12:41:01;12.30;99.90
22130;DHT22;11231;50.746;4.272;2024-02-21T12:43:27;12.20;99.90
22130;DHT22;11231;50.746;4.272;2024-02-21T12:45:52;12.20;99.90
22130;DHT22;11231;50.746;4.272;2024-02-21T12:48:18;12.40;99.90
22130;DHT22;11231;50.746;4.272;2024-02-21T12:50:49;12.50;99.90
22130;DHT22;11231;50.746;4.272;2024-02-21T12:53:19;12.50;99.90
22130;DHT22;11231;50.746;4.272;2024-02-21T12:55:48;12.50;99.90
22130;DHT22;11231;50.746;4.272;2024-02-21T12:58:14;12.50;99.90
22130;DHT22;11231;50.746;4.272;2024-02-21T13:00:40;12.60;99.90
22130;DHT22;11231;50.746;4.272;2024-02-21T13:03:06;12.40;99.90
22130;DHT22;11231;50.746;4.272;2024-02-21T13:05:32;12.50;99.90
22130;DHT22;11231;50.746;4.272;2024-02-21T13:07:58;12.40;99.90
22130;DHT22;11231;50.746;4.272;2024-02-21T13:10:24;12.50;99.90
22130;DHT22;11231;50.746;4.272;2024-02-21T13:12:51;12.60;99.90
22130;DHT22;11231;50.746;4.272;2024-02-21T13:15:16;12.60;99.90
22130;DHT22;11231;50.746;4.272;2024-02-21T13:17:46;12.60;99.90
22130;DHT22;11231;50.746;4.272;2024-02-21T13:20:12;12.50;99.90
22130;DHT22;11231;50.746;4.272;2024-02-21T13:22:38;12.40;99.90
22130;DHT22;11231;50.746;4.272;2024-02-21T13:25:05;12.10;99.90
22130;DHT22;11231;50.746;4.272;2024-02-21T13:27:33;12.10;99.90
22130;DHT22;11231;50.746;4.272;2024-02-21T13:29:58;12.20;99.90
22130;DHT22;11231;50.746;4.272;2024-02-21T13:32:25;12.10;99.90
22130;DHT22;11231;50.746;4.272;2024-02-21T13:34:51;12.00;99.90
22130;DHT22;11231;50.746;4.272;2024-02-21T13:37:18;12.00;99.90
22130;DHT22;11231;50.746;4.272;2024-02-21T13:39:43;12.00;99.90
22130;DHT22;11231;50.746;4.272;2024-02-21T13:42:10;12.00;99.90
22130;DHT22;11231;50.746;4.272;2024-02-21T13:44:35;12.00;99.90
22130;DHT22;11231;50.746;4.272;2024-02-21T13:47:02;12.10;99.90
22130;DHT22;11231;50.746;4.272;2024-02-21T13:49:28;12.10;99.90
22130;DHT22;11231;50.746;4.272;2024-02-21T13:51:55;12.00;99.90
22130;DHT22;11231;50.746;4.272;2024-02-21T13:54:21;12.10;99.90
22130;DHT22;11231;50.746;4.272;2024-02-21T13:56:47;11.90;99.90
22130;DHT22;11231;50.746;4.272;2024-02-21T13:59:13;11.60;99.90
22130;DHT22;11231;50.746;4.272;2024-02-21T14:01:42;11.50;99.90
22130;DHT22;11231;50.746;4.272;2024-02-21T14:04:08;11.40;99.90
22130;DHT22;11231;50.746;4.272;2024-02-21T14:06:34;11.30;99.90
22130;DHT22;11231;50.746;4.272;2024-02-21T14:09:00;11.30;99.90
22130;DHT22;11231;50.746;4.272;2024-02-21T14:11:26;11.30;99.90
22130;DHT22;11231;50.746;4.272;2024-02-21T14:13:52;11.30;99.90
22130;DHT22;11231;50.746;4.272;2024-02-21T14:16:18;11.20;99.90
22130;DHT22;11231;50.746;4.272;2024-02-21T14:18:44;11.20;99.90
22130;DHT22;11231;50.746;4.272;2024-02-21T14:21:10;11.30;99.90
22130;DHT22;11231;50.746;4.272;2024-02-21T14:23:40;11.30;99.90
22130;DHT22;11231;50.746;4.272;2024-02-21T14:26:06;11.20;99.90
22130;DHT22;11231;50.746;4.272;2024-02-21T14:28:32;11.10;99.90
22130;DHT22;11231;50.746;4.272;2024-02-21T14:31:01;11.00;99.90
22130;DHT22;11231;50.746;4.272;2024-02-21T14:33:29;11.00;99.90
22130;DHT22;11231;50.746;4.272;2024-02-21T14:35:56;10.90;99.90
22130;DHT22;11231;50.746;4.272;2024-02-21T14:38:22;10.80;99.90
22130;DHT22;11231;50.746;4.272;2024-02-21T14:40:48;10.80;99.90
22130;DHT22;11231;50.746;4.272;2024-02-21T14:43:14;10.70;99.90
22130;DHT22;11231;50.746;4.272;2024-02-21T14:45:40;10.70;99.90
22130;DHT22;11231;50.746;4.272;2024-02-21T14:48:06;10.70;99.90
22130;DHT22;11231;50.746;4.272;2024-02-21T14:50:32;10.60;99.90
22130;DHT22;11231;50.746;4.272;2024-02-21T14:52:58;10.60;99.90
22130;DHT22;11231;50.746;4.272;2024-02-21T14:55:23;10.50;99.90
22130;DHT22;11231;50.746;4.272;2024-02-21T14:57:50;10.50;99.90
22130;DHT22;11231;50.746;4.272;2024-02-21T15:00:16;10.50;99.90
22130;DHT22;11231;50.746;4.272;2024-02-21T15:02:42;10.50;99.90
22130;DHT22;11231;50.746;4.272;2024-02-21T15:05:08;10.40;99.90
22130;DHT22;11231;50.746;4.272;2024-02-21T15:07:35;10.40;99.90
22130;DHT22;11231;50.746;4.272;2024-02-21T15:10:01;10.30;99.90
22130;DHT22;11231;50.746;4.272;2024-02-21T15:12:28;10.20;99.90
22130;DHT22;11231;50.746;4.272;2024-02-21T15:14:53;10.20;99.90
22130;DHT22;11231;50.746;4.272;2024-02-21T15:17:19;10.10;99.90
22130;DHT22;11231;50.746;4.272;2024-02-21T15:19:45;10.10;99.90
22130;DHT22;11231;50.746;4.272;2024-02-21T15:22:11;10.20;99.90
22130;DHT22;11231;50.746;4.272;2024-02-21T15:24:38;10.10;99.90
22130;DHT22;11231;50.746;4.272;2024-02-21T15:27:04;10.10;99.90
22130;DHT22;11231;50.746;4.272;2024-02-21T15:29:30;10.10;99.90
22130;DHT22;11231;50.746;4.272;2024-02-21T15:31:55;10.00;99.90